createdAt,value
2019-01-18T00:01:56.873Z,3.72
2019-01-18T00:04:27.381Z,4.42
2019-01-18T00:07:01.780Z,4.67
2019-01-18T00:09:35.169Z,3.15
2019-01-18T00:12:05.988Z,3.00
2019-01-18T00:14:36.371Z,3.53
2019-01-18T00:17:07.307Z,3.70
2019-01-18T00:19:39.155Z,4.12
2019-01-18T00:22:11.220Z,7.13
2019-01-18T00:24:41.986Z,5.33
2019-01-18T00:27:12.353Z,12.43
2019-01-18T00:29:42.761Z,5.20
2019-01-18T00:32:13.095Z,4.17
2019-01-18T00:34:46.660Z,3.30
2019-01-18T00:37:17.049Z,3.60
2019-01-18T00:39:47.487Z,3.35
2019-01-18T00:42:18.210Z,3.70
2019-01-18T00:44:48.620Z,3.77
2019-01-18T00:47:19.328Z,3.43
2019-01-18T00:49:51.092Z,4.20
2019-01-18T00:52:22.995Z,4.07
2019-01-18T00:54:53.519Z,4.13
2019-01-18T00:57:23.990Z,6.13
2019-01-18T00:59:54.673Z,4.78
2019-01-18T01:02:25.644Z,3.98
2019-01-18T01:04:56.233Z,4.07
2019-01-18T01:07:26.822Z,6.33
2019-01-18T01:09:57.465Z,5.53
2019-01-18T01:12:28.074Z,4.80
2019-01-18T01:14:58.441Z,4.43
2019-01-18T01:17:28.877Z,3.70
2019-01-18T01:20:00.386Z,3.60
2019-01-18T01:22:30.932Z,3.90
2019-01-18T01:25:06.120Z,4.57
2019-01-18T01:27:39.263Z,4.40
2019-01-18T01:30:19.541Z,3.30
2019-01-18T01:32:55.350Z,4.67
2019-01-18T01:35:26.407Z,4.10
2019-01-18T01:38:03.085Z,4.63
2019-01-18T01:40:30.503Z,4.03
2019-01-18T01:43:08.151Z,4.50
2019-01-18T01:45:42.195Z,6.57
2019-01-18T01:48:13.224Z,4.10
2019-01-18T01:50:45.801Z,3.50
2019-01-18T01:53:26.343Z,4.00
2019-01-18T01:55:59.427Z,3.80
2019-01-18T01:58:29.482Z,3.10
2019-01-18T02:01:00.214Z,3.60
2019-01-18T02:03:34.327Z,3.47
2019-01-18T02:06:06.301Z,4.83
2019-01-18T02:08:36.877Z,3.53
2019-01-18T02:11:08.946Z,4.80
2019-01-18T02:13:39.778Z,7.23
2019-01-18T02:16:11.952Z,4.53
2019-01-18T02:18:44.737Z,5.27
2019-01-18T02:21:17.145Z,3.57
2019-01-18T02:23:47.775Z,4.60
2019-01-18T02:26:18.153Z,3.73
2019-01-18T02:28:48.533Z,4.40
2019-01-18T02:31:19.050Z,3.57
2019-01-18T02:33:49.391Z,3.83
2019-01-18T02:36:20.388Z,3.80
2019-01-18T02:38:50.848Z,3.40
2019-01-18T02:41:21.968Z,4.03
2019-01-18T02:43:52.397Z,3.60
2019-01-18T02:46:23.072Z,4.10
2019-01-18T02:48:54.045Z,3.53
2019-01-18T02:51:27.901Z,4.23
2019-01-18T02:53:58.623Z,3.67
2019-01-18T02:56:29.532Z,3.63
2019-01-18T02:59:00.154Z,3.50
2019-01-18T03:01:33.372Z,4.10
2019-01-18T03:04:05.723Z,5.70
2019-01-18T03:06:36.406Z,3.50
2019-01-18T03:09:09.561Z,3.67
2019-01-18T03:11:40.100Z,4.50
2019-01-18T03:14:10.521Z,5.10
2019-01-18T03:16:40.939Z,3.50
2019-01-18T03:19:11.325Z,3.73
2019-01-18T03:21:41.725Z,4.40
2019-01-18T03:24:12.106Z,5.47
2019-01-18T03:26:42.705Z,4.30
2019-01-18T03:29:14.000Z,4.00
2019-01-18T03:31:44.973Z,4.20
2019-01-18T03:34:15.882Z,4.73
2019-01-18T03:36:49.995Z,3.73
2019-01-18T03:39:20.527Z,4.07
2019-01-18T03:41:51.090Z,3.30
2019-01-18T03:44:22.235Z,3.17
2019-01-18T03:46:52.648Z,2.83
2019-01-18T03:49:23.329Z,2.97
2019-01-18T03:51:53.804Z,5.17
2019-01-18T03:54:24.134Z,3.43
2019-01-18T03:56:54.623Z,3.37
2019-01-18T03:59:24.924Z,3.00
2019-01-18T04:01:56.581Z,3.47
2019-01-18T04:04:27.795Z,3.60
2019-01-18T04:06:58.396Z,4.43
2019-01-18T04:09:28.845Z,4.73
2019-01-18T04:11:59.227Z,4.50
2019-01-18T04:14:30.504Z,5.83
2019-01-18T04:17:00.910Z,4.37
2019-01-18T04:19:31.256Z,4.20
2019-01-18T04:22:01.721Z,4.70
2019-01-18T04:24:32.220Z,13.63
2019-01-18T04:27:02.647Z,17.97
2019-01-18T04:29:32.938Z,14.97
2019-01-18T04:32:03.387Z,11.23
2019-01-18T04:34:33.899Z,6.73
2019-01-18T04:37:04.290Z,6.80
2019-01-18T04:39:34.583Z,4.43
2019-01-18T04:42:05.032Z,10.43
2019-01-18T04:44:35.354Z,6.67
2019-01-18T04:47:08.435Z,7.97
2019-01-18T04:49:39.090Z,11.17
2019-01-18T04:52:09.587Z,11.87
2019-01-18T04:54:39.903Z,8.40
2019-01-18T04:57:10.294Z,8.37
2019-01-18T04:59:40.839Z,7.50
2019-01-18T05:02:11.192Z,8.57
2019-01-18T05:04:42.617Z,13.87
2019-01-18T05:07:33.945Z,17.90
2019-01-18T05:10:05.907Z,14.80
2019-01-18T05:12:36.637Z,24.53
2019-01-18T05:15:10.492Z,19.63
2019-01-18T05:17:41.631Z,15.73
2019-01-18T05:20:13.770Z,14.97
2019-01-18T05:22:44.374Z,15.10
2019-01-18T05:25:15.794Z,13.20
2019-01-18T05:27:46.153Z,8.83
2019-01-18T05:30:25.356Z,9.13
2019-01-18T05:32:55.806Z,6.83
2019-01-18T05:35:28.046Z,6.47
2019-01-18T05:37:58.471Z,5.90
2019-01-18T05:40:28.785Z,4.80
2019-01-18T05:42:59.024Z,6.33
2019-01-18T05:45:29.376Z,5.60
2019-01-18T05:47:59.613Z,5.07
2019-01-18T05:50:31.572Z,6.30
2019-01-18T05:53:05.539Z,6.47
2019-01-18T05:55:36.508Z,7.27
2019-01-18T05:58:14.139Z,7.07
2019-01-18T06:00:45.915Z,7.50
2019-01-18T06:03:20.485Z,7.87
2019-01-18T06:05:51.173Z,7.13
2019-01-18T06:08:21.565Z,7.60
2019-01-18T06:10:51.853Z,7.50
2019-01-18T06:13:22.304Z,8.10
2019-01-18T06:15:52.585Z,7.13
2019-01-18T06:18:22.941Z,6.90
2019-01-18T06:20:53.281Z,7.10
2019-01-18T06:23:23.602Z,6.97
2019-01-18T06:25:54.547Z,6.50
2019-01-18T06:28:24.886Z,6.27
2019-01-18T06:31:01.515Z,5.80
2019-01-18T06:33:27.052Z,5.93
2019-01-18T06:35:58.870Z,6.23
2019-01-18T06:38:29.214Z,6.13
2019-01-18T06:41:00.953Z,5.50
2019-01-18T06:43:31.229Z,5.60
2019-01-18T06:46:01.559Z,6.07
2019-01-18T06:48:32.237Z,6.97
2019-01-18T06:51:02.923Z,6.33
2019-01-18T06:53:33.225Z,6.40
2019-01-18T06:56:03.423Z,7.30
2019-01-18T06:58:33.673Z,6.37
2019-01-18T07:01:08.500Z,6.43
2019-01-18T07:03:36.039Z,7.53
2019-01-18T07:06:06.779Z,5.87
2019-01-18T07:08:37.883Z,5.87
2019-01-18T07:11:08.398Z,6.27
2019-01-18T07:13:39.580Z,5.20
2019-01-18T07:16:10.095Z,5.17
2019-01-18T07:18:40.672Z,5.77
2019-01-18T07:21:12.616Z,5.33
2019-01-18T07:23:57.079Z,5.77
2019-01-18T07:26:15.151Z,5.30
2019-01-18T07:28:46.241Z,6.13
2019-01-18T07:31:16.554Z,5.90
2019-01-18T07:33:46.821Z,6.57
2019-01-18T07:36:17.235Z,5.43
2019-01-18T07:38:47.586Z,5.37
2019-01-18T07:41:17.816Z,5.10
2019-01-18T07:43:48.160Z,4.67
2019-01-18T07:46:19.409Z,5.13
2019-01-18T07:48:49.889Z,4.37
2019-01-18T07:51:20.581Z,4.57
2019-01-18T07:53:50.868Z,4.30
2019-01-18T07:56:21.095Z,4.33
2019-01-18T07:58:51.393Z,5.97
2019-01-18T08:01:22.302Z,6.60
2019-01-18T08:03:53.034Z,5.63
2019-01-18T08:06:23.387Z,6.13
2019-01-18T08:08:53.728Z,6.47
2019-01-18T08:11:23.939Z,6.40
2019-01-18T08:13:54.183Z,5.97
2019-01-18T08:16:32.691Z,5.70
2019-01-18T08:19:33.374Z,5.33
2019-01-18T08:21:35.185Z,6.63
2019-01-18T08:24:05.631Z,7.33
2019-01-18T08:26:35.914Z,7.10
2019-01-18T08:29:06.296Z,5.50
2019-01-18T08:31:36.574Z,5.87
2019-01-18T08:34:06.890Z,5.53
2019-01-18T08:36:37.250Z,4.73
2019-01-18T08:39:08.699Z,5.80
2019-01-18T08:41:39.037Z,5.40
2019-01-18T08:44:09.505Z,5.37
2019-01-18T08:46:39.843Z,4.80
2019-01-18T08:49:10.121Z,5.37
2019-01-18T08:51:40.807Z,5.17
2019-01-18T08:54:11.042Z,6.17
2019-01-18T08:56:42.771Z,8.63
2019-01-18T08:59:13.161Z,10.33
2019-01-18T09:01:43.558Z,8.00
2019-01-18T09:04:13.933Z,5.80
2019-01-18T09:06:44.427Z,6.23
2019-01-18T09:09:14.902Z,6.37
2019-01-18T09:11:45.303Z,7.03
2019-01-18T09:14:19.382Z,5.33
2019-01-18T09:16:47.669Z,5.43
2019-01-18T09:19:18.094Z,5.30
2019-01-18T09:21:48.441Z,7.10
2019-01-18T09:24:18.821Z,7.37
2019-01-18T09:26:49.231Z,5.17
2019-01-18T09:29:19.620Z,3.80
2019-01-18T09:31:49.912Z,4.23
2019-01-18T09:34:20.354Z,4.33
2019-01-18T09:36:50.712Z,3.20
2019-01-18T09:39:21.055Z,3.90
2019-01-18T09:41:51.475Z,4.73
2019-01-18T09:44:22.606Z,6.03
2019-01-18T09:46:52.965Z,6.30
2019-01-18T09:49:23.496Z,6.03
2019-01-18T09:51:55.362Z,5.20
2019-01-18T09:54:25.945Z,6.47
2019-01-18T09:56:57.596Z,7.00
2019-01-18T09:59:28.006Z,5.93
2019-01-18T10:01:58.562Z,7.70
2019-01-18T10:04:28.935Z,6.20
2019-01-18T10:06:59.280Z,5.83
2019-01-18T10:09:29.809Z,6.20
2019-01-18T10:12:00.095Z,9.47
2019-01-18T10:14:31.224Z,5.97
2019-01-18T10:17:01.723Z,5.67
2019-01-18T10:19:32.329Z,6.40
2019-01-18T10:22:03.988Z,12.80
2019-01-18T10:24:34.353Z,14.30
2019-01-18T10:27:04.824Z,11.73
2019-01-18T10:29:35.268Z,12.77
2019-01-18T10:32:05.616Z,9.63
2019-01-18T10:34:35.988Z,7.73
2019-01-18T10:37:06.732Z,6.83
2019-01-18T10:39:37.108Z,5.40
2019-01-18T10:42:07.475Z,5.23
2019-01-18T10:44:37.800Z,4.50
2019-01-18T10:47:08.137Z,5.27
2019-01-18T10:49:38.561Z,4.97
2019-01-18T10:52:09.162Z,3.97
2019-01-18T10:54:38.538Z,4.03
2019-01-18T10:57:09.138Z,4.27
2019-01-18T10:59:39.540Z,4.37
2019-01-18T11:02:09.910Z,5.63
2019-01-18T11:04:40.416Z,6.60
2019-01-18T11:07:10.755Z,7.27
2019-01-18T11:09:41.175Z,9.77
2019-01-18T11:12:11.704Z,11.33
2019-01-18T11:14:42.103Z,9.37
2019-01-18T11:17:12.511Z,10.23
2019-01-18T11:19:42.944Z,11.17
2019-01-18T11:22:13.284Z,9.53
2019-01-18T11:24:43.611Z,13.10
2019-01-18T11:27:14.075Z,13.13
2019-01-18T11:29:45.373Z,11.83
2019-01-18T11:32:18.372Z,12.13
2019-01-18T11:34:54.194Z,10.93
2019-01-18T11:37:25.034Z,10.60
2019-01-18T11:39:55.526Z,10.97
2019-01-18T11:42:25.985Z,10.40
2019-01-18T11:44:56.415Z,8.90
2019-01-18T11:47:26.801Z,9.07
2019-01-18T11:49:57.182Z,7.80
2019-01-18T11:52:28.007Z,6.57
2019-01-18T11:54:58.335Z,8.07
2019-01-18T11:57:30.201Z,8.03
2019-01-18T12:00:01.876Z,6.93
2019-01-18T12:02:32.622Z,8.80
2019-01-18T12:05:02.996Z,7.37
2019-01-18T12:07:44.971Z,7.63
2019-01-18T12:10:20.267Z,8.07
2019-01-18T12:12:50.973Z,8.53
2019-01-18T12:15:21.462Z,9.13
2019-01-18T12:17:51.936Z,13.67
2019-01-18T12:20:33.634Z,12.93
2019-01-18T12:23:05.360Z,16.10
2019-01-18T12:25:35.890Z,26.03
2019-01-18T12:28:06.445Z,30.40
2019-01-18T12:30:37.114Z,29.43
2019-01-18T12:33:07.978Z,42.00
2019-01-18T12:35:38.399Z,58.33
2019-01-18T12:40:37.762Z,73.23
2019-01-18T12:43:08.277Z,64.53
2019-01-18T12:45:38.633Z,47.00
2019-01-18T12:48:09.309Z,42.93
2019-01-18T12:50:40.121Z,37.77
2019-01-18T12:53:10.984Z,33.47
2019-01-18T12:55:41.704Z,38.40
2019-01-18T12:58:12.180Z,39.90
2019-01-18T13:00:42.605Z,39.27
2019-01-18T13:03:13.117Z,37.17
2019-01-18T13:05:44.337Z,29.00
2019-01-18T13:08:14.757Z,19.97
2019-01-18T13:10:45.338Z,17.50
2019-01-18T13:13:15.863Z,12.90
2019-01-18T13:16:08.265Z,13.63
2019-01-18T13:18:38.633Z,14.90
2019-01-18T13:21:09.104Z,23.63
2019-01-18T13:23:39.710Z,32.03
2019-01-18T13:26:10.152Z,27.80
2019-01-18T13:28:40.546Z,28.13
2019-01-18T13:31:11.184Z,28.37
2019-01-18T13:33:41.732Z,26.67
2019-01-18T13:36:13.709Z,24.83
2019-01-18T13:38:44.208Z,24.10
2019-01-18T13:41:14.788Z,16.50
2019-01-18T13:43:45.247Z,13.57
2019-01-18T13:46:18.363Z,14.23
2019-01-18T13:48:48.960Z,15.03
2019-01-18T13:51:19.349Z,14.30
2019-01-18T13:53:50.147Z,13.90
2019-01-18T13:56:20.756Z,11.33
2019-01-18T13:58:56.210Z,8.13
2019-01-18T14:01:26.619Z,9.27
2019-01-18T14:03:57.820Z,10.03
2019-01-18T14:06:28.346Z,7.77
2019-01-18T14:08:58.898Z,8.07
2019-01-18T14:11:29.511Z,8.30
2019-01-18T14:14:04.148Z,6.43
2019-01-18T14:16:37.970Z,8.80
2019-01-18T14:19:08.627Z,9.33
2019-01-18T14:21:38.997Z,10.53
2019-01-18T14:24:09.715Z,12.40
2019-01-18T14:26:40.233Z,12.00
2019-01-18T14:29:10.866Z,9.80
2019-01-18T14:31:41.373Z,9.07
2019-01-18T14:34:11.824Z,10.93
2019-01-18T14:36:42.617Z,10.83
2019-01-18T14:39:13.071Z,7.50
2019-01-18T14:41:43.851Z,5.97
2019-01-18T14:44:14.307Z,5.37
2019-01-18T14:46:44.734Z,6.80
2019-01-18T14:49:16.323Z,6.63
2019-01-18T14:51:46.963Z,4.83
2019-01-18T14:54:20.697Z,6.37
2019-01-18T14:56:51.201Z,6.23
2019-01-18T14:59:21.575Z,6.13
2019-01-18T15:01:52.409Z,6.27
2019-01-18T15:04:22.884Z,7.73
2019-01-18T15:06:53.288Z,4.77
2019-01-18T15:09:25.235Z,4.10
2019-01-18T15:11:55.929Z,7.42
2019-01-18T15:14:28.056Z,5.70
2019-01-18T15:16:58.847Z,4.50
2019-01-18T15:19:29.526Z,4.95
2019-01-18T15:22:00.345Z,5.12
2019-01-18T15:24:31.212Z,4.20
2019-01-18T15:27:01.743Z,4.25
2019-01-18T15:29:32.495Z,4.75
2019-01-18T15:32:03.064Z,4.70
2019-01-18T15:34:35.483Z,4.25
2019-01-18T15:37:06.228Z,4.17
2019-01-18T15:39:39.904Z,3.90
2019-01-18T15:42:29.355Z,4.00
2019-01-18T15:45:06.663Z,4.30
2019-01-18T15:47:37.423Z,3.83
2019-01-18T15:50:25.431Z,4.20
2019-01-18T15:52:58.525Z,3.05
2019-01-18T15:55:31.563Z,3.92
2019-01-18T15:58:09.605Z,3.70
2019-01-18T16:00:43.861Z,3.27
2019-01-18T16:03:16.106Z,3.15
2019-01-18T16:05:49.753Z,3.72
2019-01-18T16:08:20.757Z,6.05
2019-01-18T16:10:54.028Z,6.37
2019-01-18T16:13:24.883Z,4.08
2019-01-18T16:16:01.375Z,5.42
2019-01-18T16:18:31.962Z,6.75
2019-01-18T16:21:02.681Z,7.97
2019-01-18T16:23:43.134Z,6.50
2019-01-18T16:26:12.970Z,9.45
2019-01-18T16:28:53.458Z,7.50
2019-01-18T16:31:39.757Z,8.00
2019-01-18T16:37:31.325Z,9.63
2019-01-18T16:40:03.844Z,6.47
2019-01-18T16:42:42.214Z,6.95
2019-01-18T16:45:14.291Z,5.15
2019-01-18T16:47:49.238Z,5.65
2019-01-18T16:50:19.782Z,5.05
2019-01-18T16:52:50.753Z,5.30
2019-01-18T16:55:32.233Z,3.83
2019-01-18T16:58:08.463Z,5.05
2019-01-18T17:00:44.647Z,3.50
2019-01-18T17:03:15.328Z,3.42
2019-01-18T17:05:56.219Z,3.08
2019-01-18T17:08:29.295Z,4.15
2019-01-18T17:10:59.861Z,4.47
2019-01-18T17:13:33.051Z,4.12
2019-01-18T17:16:10.522Z,3.30
2019-01-18T17:18:41.301Z,3.62
2019-01-18T17:21:20.817Z,3.45
2019-01-18T17:27:10.287Z,3.55
2019-01-18T17:30:28.729Z,3.30
2019-01-18T17:32:24.313Z,2.60
2019-01-18T17:35:01.123Z,3.70
2019-01-18T17:37:43.632Z,4.70
2019-01-18T17:40:23.878Z,2.75
2019-01-18T17:43:04.808Z,3.15
2019-01-18T17:45:47.559Z,2.75
2019-01-18T17:48:31.861Z,3.52
2019-01-18T17:51:32.954Z,3.95
2019-01-18T17:54:12.405Z,3.08
2019-01-18T17:57:15.799Z,3.27
2019-01-18T18:03:29.500Z,3.75
2019-01-18T18:06:15.276Z,4.55
2019-01-18T18:08:59.532Z,4.60
2019-01-18T18:11:53.842Z,3.35
2019-01-18T18:14:42.575Z,3.62
2019-01-18T18:17:25.400Z,4.50
2019-01-18T18:20:16.412Z,4.35
2019-01-18T18:23:13.816Z,4.97
2019-01-18T18:26:05.985Z,5.15
2019-01-18T18:28:55.672Z,3.70
2019-01-18T18:31:43.419Z,4.80
2019-01-18T18:34:16.460Z,5.20
2019-01-18T18:37:27.249Z,4.80
2019-01-18T18:40:13.946Z,4.85
2019-01-18T18:42:52.885Z,3.50
2019-01-18T18:45:32.049Z,4.47
2019-01-18T18:48:08.031Z,4.60
2019-01-18T18:51:06.656Z,5.95
2019-01-18T18:53:45.559Z,4.30
2019-01-18T18:56:41.140Z,4.40
2019-01-18T18:59:30.544Z,4.50
2019-01-18T19:02:03.962Z,6.65
2019-01-18T19:04:40.103Z,5.60
2019-01-18T19:07:13.198Z,5.00
2019-01-18T19:09:55.234Z,3.45
2019-01-18T19:12:50.203Z,5.87
2019-01-18T19:15:26.213Z,5.47
2019-01-18T19:18:24.977Z,4.60
2019-01-18T19:21:17.895Z,4.30
2019-01-18T19:23:50.969Z,5.87
2019-01-18T19:26:38.784Z,6.50
2019-01-18T19:29:20.979Z,5.95
2019-01-18T19:32:02.984Z,4.30
2019-01-18T19:34:48.851Z,3.90
2019-01-18T19:37:41.141Z,2.87
2019-01-18T19:40:17.208Z,4.08
2019-01-18T19:43:08.308Z,4.50
2019-01-18T19:45:50.157Z,3.58
2019-01-18T19:48:29.164Z,5.67
2019-01-18T19:51:11.452Z,5.22
2019-01-18T19:53:47.577Z,5.30
2019-01-18T19:56:38.856Z,4.85
2019-01-18T19:59:24.051Z,3.67
2019-01-18T20:02:05.778Z,7.53
2019-01-18T20:04:49.377Z,2.70
2019-01-18T20:07:38.880Z,3.35
2019-01-18T20:10:30.008Z,11.10
2019-01-18T20:13:27.179Z,2.80
2019-01-18T20:16:22.580Z,4.90
2019-01-18T20:19:21.817Z,4.97
2019-01-18T20:22:30.044Z,2.95
2019-01-18T20:25:12.342Z,6.17
2019-01-18T20:28:12.738Z,4.08
2019-01-18T20:31:03.775Z,3.50
2019-01-18T20:33:42.662Z,5.35
2019-01-18T20:36:36.886Z,3.33
2019-01-18T20:39:18.941Z,2.20
2019-01-18T20:42:20.896Z,3.50
2019-01-18T20:45:16.320Z,4.97
2019-01-18T20:48:01.365Z,4.33
2019-01-18T20:50:37.099Z,6.45
2019-01-18T20:53:20.103Z,4.90
2019-01-18T20:55:58.675Z,4.15
2019-01-18T20:58:31.758Z,5.40
2019-01-18T21:01:19.821Z,3.27
2019-01-18T21:04:07.991Z,4.37
2019-01-18T21:06:43.749Z,3.87
2019-01-18T21:09:25.816Z,5.17
2019-01-18T21:12:01.812Z,3.65
2019-01-18T21:14:59.147Z,3.27
2019-01-18T21:17:50.359Z,4.35
2019-01-18T21:20:35.175Z,4.22
2019-01-18T21:23:14.104Z,3.90
2019-01-18T21:26:11.133Z,3.98
2019-01-18T21:29:12.862Z,4.00
2019-01-18T21:32:05.355Z,4.92
2019-01-18T21:34:53.428Z,4.28
2019-01-18T21:37:41.518Z,3.17
2019-01-18T21:40:23.836Z,3.52
2019-01-18T21:43:00.537Z,3.72
2019-01-18T21:46:02.023Z,4.08
2019-01-18T21:48:38.164Z,5.28
2019-01-18T21:51:32.458Z,5.80
2019-01-18T21:54:25.146Z,4.00
2019-01-18T21:57:09.460Z,5.70
2019-01-18T21:59:47.265Z,6.90
2019-01-18T22:02:35.537Z,5.30
2019-01-18T22:05:11.103Z,4.08
2019-01-18T22:07:50.303Z,5.03
2019-01-18T22:10:29.727Z,5.25
2019-01-18T22:13:13.402Z,4.30
2019-01-18T22:16:03.117Z,4.90
2019-01-18T22:18:49.481Z,3.00
2019-01-18T22:21:34.432Z,4.62
2019-01-18T22:24:35.890Z,6.00
2019-01-18T22:27:08.782Z,4.03
2019-01-18T22:29:59.985Z,4.12
2019-01-18T22:32:45.125Z,3.83
2019-01-18T22:35:58.689Z,4.67
2019-01-18T22:38:22.039Z,4.65
2019-01-18T22:41:10.251Z,3.70
2019-01-18T22:44:04.945Z,3.77
2019-01-18T22:46:56.415Z,3.33
2019-01-18T22:49:41.359Z,3.42
2019-01-18T22:52:17.433Z,5.70
2019-01-18T22:55:06.503Z,4.40
2019-01-18T22:57:35.285Z,3.75
2019-01-18T23:00:51.769Z,4.22
2019-01-18T23:03:46.566Z,4.72
2019-01-18T23:06:41.214Z,4.62
2019-01-18T23:09:33.649Z,3.80
2019-01-18T23:12:29.024Z,4.37
2019-01-18T23:15:02.040Z,5.78
2019-01-18T23:18:04.548Z,4.85
2019-01-18T23:20:52.582Z,5.20
2019-01-18T23:23:29.237Z,4.92
2019-01-18T23:26:12.794Z,5.00
2019-01-18T23:28:59.009Z,4.50
2019-01-18T23:31:32.101Z,7.00
2019-01-18T23:34:14.565Z,9.08
2019-01-18T23:36:56.269Z,4.50
2019-01-18T23:39:57.973Z,5.45
2019-01-18T23:42:34.051Z,5.65
2019-01-18T23:45:18.834Z,3.95
2019-01-18T23:48:08.333Z,6.28
2019-01-18T23:50:46.154Z,7.92
2019-01-18T23:53:44.154Z,5.08
2019-01-18T23:56:41.806Z,7.33
2019-01-18T23:59:21.935Z,7.05
